Shaftesbury, United Kingdom
Current Conditions -  °F | °C
As of 9:05 AM on Friday 28 Nov 2014 (Local Time) from EGDY Reporting Station
Broken Clouds Broken Clouds  
Wind Chill: 50°   Ceiling: 1400
Heat Index: 50°   Visibility: 6mi
Dew Point: 46°   Wind: 15mph
Humidity: 87%   Direction: 70°ENE
Pressure: 29.53"   Gusts: NA
Location:  51.01°N, 2.19°W
Report Text: EGDY 280905Z 07013KT 9999 SCT012 BKN014 10/08 Q1000 GRN NOSIG
Loading
Personal Weather Stations






























Interactive Weather Map New forecast layout! Learn more

10-Day Weather Forecast

Advertisements
Track Severe Weather on mobile